Decoded Metar for LETL (TERUEL in SPAIN) (IATA:N/A) | Meteo·Mobile Aviation Weather
aviador You're here:

LETL Decoded Metar

TERUEL in SPAIN
Report Time2018-10-17 05:00:00
UTC Time2018-10-17 05:15:36
Flight Rules vfr VFR
Wind340° at 03 kt
W.Rank340° ranks 1
Current wind is below 340° avg. (10.5)
Visibility9999 m
Phenomena:N/A
Clouds:N/A
Expected CloudBase > 400 ft AGL from Temp-Dew spread
CeilingNone
Temp06°C (ISA -2)
Dew Point05°C (93% RH)
AAT3.8°C
QNH1019 hPa
Density Alt3,018 ft
Elevation3,367 ft
Report Wrong Elevation
Raw Report
METAR LETL 170500Z AUTO 34003KT 9999 NCD 06/05 Q1019=

Extra information for LETL:More info

Metar Taf Metar & Taf Last 4 Metars F.Rules Stats Wind Profile Meteogram Temp Stats Airport Information Weather charts Add Link Nearby VenuesMetar ALERT Operation Metar Decoded Social comments